sensor_id;sensor_type;location;lat;lon;timestamp;temperature;humidity
29345;DHT22;16339;48.748;2.222;2022-11-12T00:01:30;12.80;72.20
29345;DHT22;16339;48.748;2.222;2022-11-12T00:03:59;12.80;72.50
29345;DHT22;16339;48.748;2.222;2022-11-12T00:06:27;12.80;72.50
29345;DHT22;16339;48.748;2.222;2022-11-12T00:08:58;12.80;72.40
29345;DHT22;16339;48.748;2.222;2022-11-12T00:11:27;12.70;72.10
29345;DHT22;16339;48.748;2.222;2022-11-12T00:13:56;12.80;71.90
29345;DHT22;16339;48.748;2.222;2022-11-12T00:16:25;12.80;71.80
29345;DHT22;16339;48.748;2.222;2022-11-12T00:18:53;12.70;72.10
29345;DHT22;16339;48.748;2.222;2022-11-12T00:21:22;12.70;72.00
29345;DHT22;16339;48.748;2.222;2022-11-12T00:23:51;12.70;72.20
29345;DHT22;16339;48.748;2.222;2022-11-12T00:26:22;12.70;72.40
29345;DHT22;16339;48.748;2.222;2022-11-12T00:28:51;12.70;72.30
29345;DHT22;16339;48.748;2.222;2022-11-12T00:31:19;12.70;72.10
29345;DHT22;16339;48.748;2.222;2022-11-12T00:33:48;12.70;71.80
29345;DHT22;16339;48.748;2.222;2022-11-12T00:36:17;12.70;71.80
29345;DHT22;16339;48.748;2.222;2022-11-12T00:38:45;12.70;71.60
29345;DHT22;16339;48.748;2.222;2022-11-12T00:41:14;12.70;71.50
29345;DHT22;16339;48.748;2.222;2022-11-12T00:43:46;12.70;71.30
29345;DHT22;16339;48.748;2.222;2022-11-12T00:46:14;12.70;71.40
29345;DHT22;16339;48.748;2.222;2022-11-12T00:48:43;12.70;71.30
29345;DHT22;16339;48.748;2.222;2022-11-12T00:51:12;12.60;71.10
29345;DHT22;16339;48.748;2.222;2022-11-12T00:53:40;12.70;71.10
29345;DHT22;16339;48.748;2.222;2022-11-12T00:56:09;12.60;71.80
29345;DHT22;16339;48.748;2.222;2022-11-12T00:58:38;12.60;71.00
29345;DHT22;16339;48.748;2.222;2022-11-12T01:01:11;12.60;71.10
29345;DHT22;16339;48.748;2.222;2022-11-12T01:03:40;12.60;71.40
29345;DHT22;16339;48.748;2.222;2022-11-12T01:06:11;12.60;71.30
29345;DHT22;16339;48.748;2.222;2022-11-12T01:08:41;12.60;71.20
29345;DHT22;16339;48.748;2.222;2022-11-12T01:11:12;12.60;70.80
29345;DHT22;16339;48.748;2.222;2022-11-12T01:13:43;12.60;70.70
29345;DHT22;16339;48.748;2.222;2022-11-12T01:16:17;12.60;70.90
29345;DHT22;16339;48.748;2.222;2022-11-12T01:18:50;12.50;71.00
29345;DHT22;16339;48.748;2.222;2022-11-12T01:21:22;12.60;71.20
29345;DHT22;16339;48.748;2.222;2022-11-12T01:23:51;12.60;71.10
29345;DHT22;16339;48.748;2.222;2022-11-12T01:26:21;12.60;71.00
29345;DHT22;16339;48.748;2.222;2022-11-12T01:28:50;12.60;70.80
29345;DHT22;16339;48.748;2.222;2022-11-12T01:31:23;12.60;70.80
29345;DHT22;16339;48.748;2.222;2022-11-12T01:33:54;12.60;71.00
29345;DHT22;16339;48.748;2.222;2022-11-12T01:36:24;12.70;71.10
29345;DHT22;16339;48.748;2.222;2022-11-12T01:38:54;12.70;71.20
29345;DHT22;16339;48.748;2.222;2022-11-12T01:41:25;12.70;71.40
29345;DHT22;16339;48.748;2.222;2022-11-12T01:44:08;12.70;71.60
29345;DHT22;16339;48.748;2.222;2022-11-12T01:46:46;12.70;71.60
29345;DHT22;16339;48.748;2.222;2022-11-12T01:49:20;12.80;71.70
29345;DHT22;16339;48.748;2.222;2022-11-12T01:51:54;12.80;71.60
29345;DHT22;16339;48.748;2.222;2022-11-12T01:54:25;12.80;71.60
29345;DHT22;16339;48.748;2.222;2022-11-12T01:56:55;12.90;71.80
29345;DHT22;16339;48.748;2.222;2022-11-12T01:59:28;12.90;71.90
29345;DHT22;16339;48.748;2.222;2022-11-12T02:02:03;12.90;72.10
29345;DHT22;16339;48.748;2.222;2022-11-12T02:04:32;12.80;72.20
29345;DHT22;16339;48.748;2.222;2022-11-12T02:07:02;12.90;72.20
29345;DHT22;16339;48.748;2.222;2022-11-12T02:09:31;12.90;72.20
29345;DHT22;16339;48.748;2.222;2022-11-12T02:12:00;12.90;72.20
29345;DHT22;16339;48.748;2.222;2022-11-12T02:14:29;12.90;72.40
29345;DHT22;16339;48.748;2.222;2022-11-12T02:16:56;12.90;72.70
29345;DHT22;16339;48.748;2.222;2022-11-12T02:19:28;13.00;72.70
29345;DHT22;16339;48.748;2.222;2022-11-12T02:21:59;12.90;72.70
29345;DHT22;16339;48.748;2.222;2022-11-12T02:24:33;12.90;72.80
29345;DHT22;16339;48.748;2.222;2022-11-12T02:27:02;12.90;72.70
29345;DHT22;16339;48.748;2.222;2022-11-12T02:29:32;13.00;72.90
29345;DHT22;16339;48.748;2.222;2022-11-12T02:32:01;13.00;73.40
29345;DHT22;16339;48.748;2.222;2022-11-12T02:34:29;13.00;73.50
29345;DHT22;16339;48.748;2.222;2022-11-12T02:37:01;13.00;73.60
29345;DHT22;16339;48.748;2.222;2022-11-12T02:39:29;13.00;74.50
29345;DHT22;16339;48.748;2.222;2022-11-12T02:41:58;13.00;73.80
29345;DHT22;16339;48.748;2.222;2022-11-12T02:44:27;13.10;73.70
29345;DHT22;16339;48.748;2.222;2022-11-12T02:46:56;13.10;73.50
29345;DHT22;16339;48.748;2.222;2022-11-12T02:49:24;13.00;73.40
29345;DHT22;16339;48.748;2.222;2022-11-12T02:51:53;13.10;73.40
29345;DHT22;16339;48.748;2.222;2022-11-12T02:54:25;13.10;73.60
29345;DHT22;16339;48.748;2.222;2022-11-12T02:56:53;13.10;73.70
29345;DHT22;16339;48.748;2.222;2022-11-12T02:59:22;13.10;73.90
29345;DHT22;16339;48.748;2.222;2022-11-12T03:01:51;13.10;74.00
29345;DHT22;16339;48.748;2.222;2022-11-12T03:04:19;13.10;74.10
29345;DHT22;16339;48.748;2.222;2022-11-12T03:06:48;13.10;74.30
29345;DHT22;16339;48.748;2.222;2022-11-12T03:09:17;13.10;74.40
29345;DHT22;16339;48.748;2.222;2022-11-12T03:11:48;13.10;74.40
29345;DHT22;16339;48.748;2.222;2022-11-12T03:14:17;13.10;74.50
29345;DHT22;16339;48.748;2.222;2022-11-12T03:16:46;13.10;74.70
29345;DHT22;16339;48.748;2.222;2022-11-12T03:19:14;13.10;74.90
29345;DHT22;16339;48.748;2.222;2022-11-12T03:21:43;13.10;76.00
29345;DHT22;16339;48.748;2.222;2022-11-12T03:24:12;13.20;75.40
29345;DHT22;16339;48.748;2.222;2022-11-12T03:26:40;13.20;75.50
29345;DHT22;16339;48.748;2.222;2022-11-12T03:29:12;13.20;75.60
29345;DHT22;16339;48.748;2.222;2022-11-12T03:31:41;13.20;75.80
29345;DHT22;16339;48.748;2.222;2022-11-12T03:34:10;13.20;76.30
29345;DHT22;16339;48.748;2.222;2022-11-12T03:36:38;13.30;76.60
29345;DHT22;16339;48.748;2.222;2022-11-12T03:39:07;13.30;77.10
29345;DHT22;16339;48.748;2.222;2022-11-12T03:41:36;13.30;77.40
29345;DHT22;16339;48.748;2.222;2022-11-12T03:44:05;13.30;77.70
29345;DHT22;16339;48.748;2.222;2022-11-12T03:46:36;13.30;78.00
29345;DHT22;16339;48.748;2.222;2022-11-12T03:49:05;13.30;78.10
29345;DHT22;16339;48.748;2.222;2022-11-12T03:51:33;13.30;78.30
29345;DHT22;16339;48.748;2.222;2022-11-12T03:54:02;13.30;78.40
29345;DHT22;16339;48.748;2.222;2022-11-12T03:56:31;13.30;78.60
29345;DHT22;16339;48.748;2.222;2022-11-12T03:59:00;13.30;78.50
29345;DHT22;16339;48.748;2.222;2022-11-12T04:01:28;13.30;78.60
29345;DHT22;16339;48.748;2.222;2022-11-12T04:04:00;13.30;78.60
29345;DHT22;16339;48.748;2.222;2022-11-12T04:06:28;13.30;78.60
29345;DHT22;16339;48.748;2.222;2022-11-12T04:09:10;13.40;78.80
29345;DHT22;16339;48.748;2.222;2022-11-12T04:11:38;13.40;78.70
29345;DHT22;16339;48.748;2.222;2022-11-12T04:14:07;13.40;78.70
29345;DHT22;16339;48.748;2.222;2022-11-12T04:16:33;13.40;78.70
29345;DHT22;16339;48.748;2.222;2022-11-12T04:19:17;13.30;78.60
29345;DHT22;16339;48.748;2.222;2022-11-12T04:22:01;13.30;78.70
29345;DHT22;16339;48.748;2.222;2022-11-12T04:24:32;13.30;78.80
29345;DHT22;16339;48.748;2.222;2022-11-12T04:27:15;13.30;78.70
29345;DHT22;16339;48.748;2.222;2022-11-12T04:29:45;13.30;78.70
29345;DHT22;16339;48.748;2.222;2022-11-12T04:32:26;13.30;78.70
29345;DHT22;16339;48.748;2.222;2022-11-12T04:34:58;13.30;78.70
29345;DHT22;16339;48.748;2.222;2022-11-12T04:37:29;13.30;78.70
29345;DHT22;16339;48.748;2.222;2022-11-12T04:40:10;13.30;78.60
29345;DHT22;16339;48.748;2.222;2022-11-12T04:42:51;13.30;78.60
29345;DHT22;16339;48.748;2.222;2022-11-12T04:45:32;13.30;78.60
29345;DHT22;16339;48.748;2.222;2022-11-12T04:48:01;13.30;78.60
29345;DHT22;16339;48.748;2.222;2022-11-12T04:50:33;13.30;78.60
29345;DHT22;16339;48.748;2.222;2022-11-12T04:53:02;13.30;78.50
29345;DHT22;16339;48.748;2.222;2022-11-12T04:55:31;13.30;78.50
29345;DHT22;16339;48.748;2.222;2022-11-12T04:58:00;13.30;78.40
29345;DHT22;16339;48.748;2.222;2022-11-12T05:00:28;13.30;79.20
29345;DHT22;16339;48.748;2.222;2022-11-12T05:02:57;13.30;78.50
29345;DHT22;16339;48.748;2.222;2022-11-12T05:05:26;13.30;78.40
29345;DHT22;16339;48.748;2.222;2022-11-12T05:07:58;13.30;78.50
29345;DHT22;16339;48.748;2.222;2022-11-12T05:10:27;13.20;78.40
29345;DHT22;16339;48.748;2.222;2022-11-12T05:12:56;13.30;78.40
29345;DHT22;16339;48.748;2.222;2022-11-12T05:15:25;13.30;78.40
29345;DHT22;16339;48.748;2.222;2022-11-12T05:17:54;13.30;78.40
29345;DHT22;16339;48.748;2.222;2022-11-12T05:20:23;13.30;78.20
29345;DHT22;16339;48.748;2.222;2022-11-12T05:22:51;13.20;78.00
29345;DHT22;16339;48.748;2.222;2022-11-12T05:25:23;13.20;78.20
29345;DHT22;16339;48.748;2.222;2022-11-12T05:27:51;13.20;78.30
29345;DHT22;16339;48.748;2.222;2022-11-12T05:30:20;13.30;78.60
29345;DHT22;16339;48.748;2.222;2022-11-12T05:32:49;13.30;78.30
29345;DHT22;16339;48.748;2.222;2022-11-12T05:35:18;13.30;78.40
29345;DHT22;16339;48.748;2.222;2022-11-12T05:37:46;13.30;78.50
29345;DHT22;16339;48.748;2.222;2022-11-12T05:40:16;13.30;78.50
29345;DHT22;16339;48.748;2.222;2022-11-12T05:42:47;13.30;78.50
29345;DHT22;16339;48.748;2.222;2022-11-12T05:45:16;13.20;78.50
29345;DHT22;16339;48.748;2.222;2022-11-12T05:47:44;13.30;78.60
29345;DHT22;16339;48.748;2.222;2022-11-12T05:50:14;13.20;78.40
29345;DHT22;16339;48.748;2.222;2022-11-12T05:52:42;13.20;78.60
29345;DHT22;16339;48.748;2.222;2022-11-12T05:55:11;13.20;78.60
29345;DHT22;16339;48.748;2.222;2022-11-12T05:57:40;13.20;78.60
29345;DHT22;16339;48.748;2.222;2022-11-12T06:00:12;13.20;78.60
29345;DHT22;16339;48.748;2.222;2022-11-12T06:02:41;13.20;78.70
29345;DHT22;16339;48.748;2.222;2022-11-12T06:05:10;13.20;78.60
29345;DHT22;16339;48.748;2.222;2022-11-12T06:07:39;13.20;78.50
29345;DHT22;16339;48.748;2.222;2022-11-12T06:10:08;13.20;78.60
29345;DHT22;16339;48.748;2.222;2022-11-12T06:12:37;13.20;78.60
29345;DHT22;16339;48.748;2.222;2022-11-12T06:15:07;13.20;78.50
29345;DHT22;16339;48.748;2.222;2022-11-12T06:17:38;13.20;78.50
29345;DHT22;16339;48.748;2.222;2022-11-12T06:20:08;13.20;78.40
29345;DHT22;16339;48.748;2.222;2022-11-12T06:22:37;13.20;78.30
29345;DHT22;16339;48.748;2.222;2022-11-12T06:25:06;13.20;78.20
29345;DHT22;16339;48.748;2.222;2022-11-12T06:27:35;13.10;78.10
29345;DHT22;16339;48.748;2.222;2022-11-12T06:30:07;13.10;78.70
29345;DHT22;16339;48.748;2.222;2022-11-12T06:32:39;13.10;77.90
29345;DHT22;16339;48.748;2.222;2022-11-12T06:35:08;13.10;78.00
29345;DHT22;16339;48.748;2.222;2022-11-12T06:37:37;13.10;77.80
29345;DHT22;16339;48.748;2.222;2022-11-12T06:40:07;13.10;77.70
29345;DHT22;16339;48.748;2.222;2022-11-12T06:42:36;13.00;77.70
29345;DHT22;16339;48.748;2.222;2022-11-12T06:45:06;13.00;77.70
29345;DHT22;16339;48.748;2.222;2022-11-12T06:47:35;13.00;77.80
29345;DHT22;16339;48.748;2.222;2022-11-12T06:50:07;13.00;77.80
29345;DHT22;16339;48.748;2.222;2022-11-12T06:52:36;13.00;77.90
29345;DHT22;16339;48.748;2.222;2022-11-12T06:55:05;12.90;77.90
29345;DHT22;16339;48.748;2.222;2022-11-12T06:57:34;13.00;78.00
29345;DHT22;16339;48.748;2.222;2022-11-12T07:00:04;13.00;78.00
29345;DHT22;16339;48.748;2.222;2022-11-12T07:02:34;13.10;78.10
29345;DHT22;16339;48.748;2.222;2022-11-12T07:05:06;13.10;78.00
29345;DHT22;16339;48.748;2.222;2022-11-12T07:07:34;13.00;77.90
29345;DHT22;16339;48.748;2.222;2022-11-12T07:10:04;13.00;77.80
29345;DHT22;16339;48.748;2.222;2022-11-12T07:12:33;13.00;78.00
29345;DHT22;16339;48.748;2.222;2022-11-12T07:15:02;13.00;78.00
29345;DHT22;16339;48.748;2.222;2022-11-12T07:17:30;13.00;78.00
29345;DHT22;16339;48.748;2.222;2022-11-12T07:19:59;13.00;78.10
29345;DHT22;16339;48.748;2.222;2022-11-12T07:22:31;13.00;78.20
29345;DHT22;16339;48.748;2.222;2022-11-12T07:25:00;13.00;78.30
29345;DHT22;16339;48.748;2.222;2022-11-12T07:27:29;13.00;79.10
29345;DHT22;16339;48.748;2.222;2022-11-12T07:29:58;13.00;78.30
29345;DHT22;16339;48.748;2.222;2022-11-12T07:32:27;13.10;78.40
29345;DHT22;16339;48.748;2.222;2022-11-12T07:34:55;13.10;78.30
29345;DHT22;16339;48.748;2.222;2022-11-12T07:37:24;13.10;78.10
29345;DHT22;16339;48.748;2.222;2022-11-12T07:39:56;13.10;78.10
29345;DHT22;16339;48.748;2.222;2022-11-12T07:42:24;13.10;78.80
29345;DHT22;16339;48.748;2.222;2022-11-12T07:44:53;13.20;78.10
29345;DHT22;16339;48.748;2.222;2022-11-12T07:47:22;13.20;77.90
29345;DHT22;16339;48.748;2.222;2022-11-12T07:49:50;13.20;78.00
29345;DHT22;16339;48.748;2.222;2022-11-12T07:52:19;13.20;77.80
29345;DHT22;16339;48.748;2.222;2022-11-12T07:54:48;13.20;77.90
29345;DHT22;16339;48.748;2.222;2022-11-12T07:57:19;13.20;78.00
29345;DHT22;16339;48.748;2.222;2022-11-12T07:59:48;13.20;78.00
29345;DHT22;16339;48.748;2.222;2022-11-12T08:02:17;13.20;78.00
29345;DHT22;16339;48.748;2.222;2022-11-12T08:04:45;13.20;77.90
29345;DHT22;16339;48.748;2.222;2022-11-12T08:07:14;13.30;77.90
29345;DHT22;16339;48.748;2.222;2022-11-12T08:09:43;13.30;77.90
29345;DHT22;16339;48.748;2.222;2022-11-12T08:12:11;13.30;77.80
29345;DHT22;16339;48.748;2.222;2022-11-12T08:14:43;13.30;77.80
29345;DHT22;16339;48.748;2.222;2022-11-12T08:17:11;13.40;77.80
29345;DHT22;16339;48.748;2.222;2022-11-12T08:19:40;13.40;77.90
29345;DHT22;16339;48.748;2.222;2022-11-12T08:22:09;13.40;77.70
29345;DHT22;16339;48.748;2.222;2022-11-12T08:24:38;13.40;77.70
29345;DHT22;16339;48.748;2.222;2022-11-12T08:27:06;13.50;78.30
29345;DHT22;16339;48.748;2.222;2022-11-12T08:29:35;13.50;77.70
29345;DHT22;16339;48.748;2.222;2022-11-12T08:32:07;13.50;77.80
29345;DHT22;16339;48.748;2.222;2022-11-12T08:34:35;13.50;77.60
29345;DHT22;16339;48.748;2.222;2022-11-12T08:37:06;13.60;77.70
29345;DHT22;16339;48.748;2.222;2022-11-12T08:39:34;13.60;77.40
29345;DHT22;16339;48.748;2.222;2022-11-12T08:42:03;13.60;77.60
29345;DHT22;16339;48.748;2.222;2022-11-12T08:44:32;13.60;77.70
29345;DHT22;16339;48.748;2.222;2022-11-12T08:47:01;13.60;77.60
29345;DHT22;16339;48.748;2.222;2022-11-12T08:49:32;13.60;77.40
29345;DHT22;16339;48.748;2.222;2022-11-12T08:52:01;13.60;77.50
29345;DHT22;16339;48.748;2.222;2022-11-12T08:54:30;13.60;77.50
29345;DHT22;16339;48.748;2.222;2022-11-12T08:56:59;13.70;77.60
29345;DHT22;16339;48.748;2.222;2022-11-12T08:59:27;13.70;77.60
29345;DHT22;16339;48.748;2.222;2022-11-12T09:01:56;13.70;77.60
29345;DHT22;16339;48.748;2.222;2022-11-12T09:04:25;13.70;77.60
29345;DHT22;16339;48.748;2.222;2022-11-12T09:06:56;13.80;77.60
29345;DHT22;16339;48.748;2.222;2022-11-12T09:09:25;13.80;77.60
29345;DHT22;16339;48.748;2.222;2022-11-12T09:11:54;13.80;77.50
29345;DHT22;16339;48.748;2.222;2022-11-12T09:14:22;13.80;77.50
29345;DHT22;16339;48.748;2.222;2022-11-12T09:16:51;13.80;77.70
29345;DHT22;16339;48.748;2.222;2022-11-12T09:19:20;13.90;77.70
29345;DHT22;16339;48.748;2.222;2022-11-12T09:21:49;13.90;77.80
29345;DHT22;16339;48.748;2.222;2022-11-12T09:24:20;13.90;77.70
29345;DHT22;16339;48.748;2.222;2022-11-12T09:26:51;13.90;77.50
29345;DHT22;16339;48.748;2.222;2022-11-12T09:29:20;13.90;77.70
29345;DHT22;16339;48.748;2.222;2022-11-12T09:31:49;13.90;77.80
29345;DHT22;16339;48.748;2.222;2022-11-12T09:34:18;13.90;77.80
29345;DHT22;16339;48.748;2.222;2022-11-12T09:36:47;14.00;77.90
29345;DHT22;16339;48.748;2.222;2022-11-12T09:39:16;14.00;77.80
29345;DHT22;16339;48.748;2.222;2022-11-12T09:41:47;14.00;77.90
29345;DHT22;16339;48.748;2.222;2022-11-12T09:44:18;14.00;77.90
29345;DHT22;16339;48.748;2.222;2022-11-12T09:46:52;14.10;77.90
29345;DHT22;16339;48.748;2.222;2022-11-12T09:49:27;14.10;77.80
29345;DHT22;16339;48.748;2.222;2022-11-12T09:52:03;14.10;77.70
29345;DHT22;16339;48.748;2.222;2022-11-12T09:54:34;14.10;77.70
29345;DHT22;16339;48.748;2.222;2022-11-12T09:57:09;14.10;77.60
29345;DHT22;16339;48.748;2.222;2022-11-12T09:59:41;14.20;77.80
29345;DHT22;16339;48.748;2.222;2022-11-12T10:02:20;14.20;77.70
29345;DHT22;16339;48.748;2.222;2022-11-12T10:04:58;14.20;77.80
29345;DHT22;16339;48.748;2.222;2022-11-12T10:07:45;14.20;77.80
29345;DHT22;16339;48.748;2.222;2022-11-12T10:10:15;14.20;77.70
29345;DHT22;16339;48.748;2.222;2022-11-12T10:12:57;14.30;77.70
29345;DHT22;16339;48.748;2.222;2022-11-12T10:15:38;14.30;77.80
29345;DHT22;16339;48.748;2.222;2022-11-12T10:18:34;14.30;77.80
29345;DHT22;16339;48.748;2.222;2022-11-12T10:21:14;14.30;77.80
29345;DHT22;16339;48.748;2.222;2022-11-12T10:23:50;14.30;77.70
29345;DHT22;16339;48.748;2.222;2022-11-12T10:26:21;14.40;77.70
29345;DHT22;16339;48.748;2.222;2022-11-12T10:29:00;14.40;77.70
29345;DHT22;16339;48.748;2.222;2022-11-12T10:31:30;14.50;77.70
29345;DHT22;16339;48.748;2.222;2022-11-12T10:34:15;14.50;77.80
29345;DHT22;16339;48.748;2.222;2022-11-12T10:36:47;14.50;78.10
29345;DHT22;16339;48.748;2.222;2022-11-12T10:39:33;14.60;78.00
29345;DHT22;16339;48.748;2.222;2022-11-12T10:42:04;14.60;77.80
29345;DHT22;16339;48.748;2.222;2022-11-12T10:44:37;14.70;77.50
29345;DHT22;16339;48.748;2.222;2022-11-12T10:47:21;14.70;77.50
29345;DHT22;16339;48.748;2.222;2022-11-12T10:52:59;14.70;77.70
29345;DHT22;16339;48.748;2.222;2022-11-12T10:55:30;14.80;77.70
29345;DHT22;16339;48.748;2.222;2022-11-12T10:58:12;14.90;77.50
29345;DHT22;16339;48.748;2.222;2022-11-12T11:00:55;14.90;77.20
29345;DHT22;16339;48.748;2.222;2022-11-12T11:03:26;14.90;77.20
29345;DHT22;16339;48.748;2.222;2022-11-12T11:05:58;15.00;77.30
29345;DHT22;16339;48.748;2.222;2022-11-12T11:08:39;15.00;77.30
29345;DHT22;16339;48.748;2.222;2022-11-12T11:11:23;15.00;77.30
29345;DHT22;16339;48.748;2.222;2022-11-12T11:13:54;15.00;77.10
29345;DHT22;16339;48.748;2.222;2022-11-12T11:16:27;15.10;77.00
29345;DHT22;16339;48.748;2.222;2022-11-12T11:18:58;15.10;76.90
29345;DHT22;16339;48.748;2.222;2022-11-12T11:21:42;15.10;76.70
29345;DHT22;16339;48.748;2.222;2022-11-12T11:24:31;15.00;77.00
29345;DHT22;16339;48.748;2.222;2022-11-12T11:27:08;15.00;77.20
29345;DHT22;16339;48.748;2.222;2022-11-12T11:29:54;15.10;77.20
29345;DHT22;16339;48.748;2.222;2022-11-12T11:35:33;15.10;77.30
29345;DHT22;16339;48.748;2.222;2022-11-12T11:38:08;15.20;77.40
29345;DHT22;16339;48.748;2.222;2022-11-12T11:40:47;15.30;77.80
29345;DHT22;16339;48.748;2.222;2022-11-12T11:43:36;15.30;77.60
29345;DHT22;16339;48.748;2.222;2022-11-12T11:46:15;15.30;77.70
29345;DHT22;16339;48.748;2.222;2022-11-12T11:48:56;15.30;77.60
29345;DHT22;16339;48.748;2.222;2022-11-12T11:51:44;15.40;77.70
29345;DHT22;16339;48.748;2.222;2022-11-12T11:54:37;15.40;77.60
29345;DHT22;16339;48.748;2.222;2022-11-12T11:57:15;15.40;77.60
29345;DHT22;16339;48.748;2.222;2022-11-12T12:00:03;15.50;77.60
29345;DHT22;16339;48.748;2.222;2022-11-12T12:02:55;15.50;77.50
29345;DHT22;16339;48.748;2.222;2022-11-12T12:05:37;15.50;77.30
29345;DHT22;16339;48.748;2.222;2022-11-12T12:08:13;15.50;77.30
29345;DHT22;16339;48.748;2.222;2022-11-12T12:10:51;15.50;77.20
29345;DHT22;16339;48.748;2.222;2022-11-12T12:13:31;15.40;77.30
29345;DHT22;16339;48.748;2.222;2022-11-12T12:16:27;15.50;77.40
29345;DHT22;16339;48.748;2.222;2022-11-12T12:19:05;15.40;77.70
29345;DHT22;16339;48.748;2.222;2022-11-12T12:21:38;15.40;77.80
29345;DHT22;16339;48.748;2.222;2022-11-12T12:24:16;15.40;78.00
29345;DHT22;16339;48.748;2.222;2022-11-12T12:26:49;15.40;78.10
29345;DHT22;16339;48.748;2.222;2022-11-12T12:29:26;15.50;78.00
29345;DHT22;16339;48.748;2.222;2022-11-12T12:32:06;15.60;78.00
29345;DHT22;16339;48.748;2.222;2022-11-12T12:34:40;15.60;77.80
29345;DHT22;16339;48.748;2.222;2022-11-12T12:37:16;15.70;77.70
29345;DHT22;16339;48.748;2.222;2022-11-12T12:39:54;15.70;77.30
29345;DHT22;16339;48.748;2.222;2022-11-12T12:42:30;15.80;77.40
29345;DHT22;16339;48.748;2.222;2022-11-12T12:45:25;15.80;76.80
29345;DHT22;16339;48.748;2.222;2022-11-12T12:47:55;15.80;77.10
29345;DHT22;16339;48.748;2.222;2022-11-12T12:50:25;15.90;77.90
29345;DHT22;16339;48.748;2.222;2022-11-12T12:53:01;16.00;77.10
29345;DHT22;16339;48.748;2.222;2022-11-12T12:55:41;16.00;77.10
29345;DHT22;16339;48.748;2.222;2022-11-12T12:58:20;16.10;76.90
29345;DHT22;16339;48.748;2.222;2022-11-12T13:00:52;16.20;76.50
29345;DHT22;16339;48.748;2.222;2022-11-12T13:03:48;16.30;76.20
29345;DHT22;16339;48.748;2.222;2022-11-12T13:06:28;16.30;76.10
29345;DHT22;16339;48.748;2.222;2022-11-12T13:09:02;16.40;75.90
29345;DHT22;16339;48.748;2.222;2022-11-12T13:11:50;16.50;75.70
29345;DHT22;16339;48.748;2.222;2022-11-12T13:17:49;16.50;75.50
29345;DHT22;16339;48.748;2.222;2022-11-12T13:20:37;16.60;76.00
29345;DHT22;16339;48.748;2.222;2022-11-12T13:26:43;16.80;75.70
29345;DHT22;16339;48.748;2.222;2022-11-12T13:29:39;17.00;75.40
29345;DHT22;16339;48.748;2.222;2022-11-12T13:32:30;17.00;75.00
29345;DHT22;16339;48.748;2.222;2022-11-12T13:35:43;17.10;74.60
29345;DHT22;16339;48.748;2.222;2022-11-12T13:39:11;17.30;74.50
29345;DHT22;16339;48.748;2.222;2022-11-12T13:42:12;17.30;74.00
29345;DHT22;16339;48.748;2.222;2022-11-12T13:44:58;17.30;73.80
29345;DHT22;16339;48.748;2.222;2022-11-12T13:47:28;17.40;73.60
29345;DHT22;16339;48.748;2.222;2022-11-12T13:49:59;17.40;73.80
29345;DHT22;16339;48.748;2.222;2022-11-12T13:52:29;17.40;74.00
29345;DHT22;16339;48.748;2.222;2022-11-12T13:55:02;17.40;74.00
29345;DHT22;16339;48.748;2.222;2022-11-12T13:57:32;17.40;73.80
29345;DHT22;16339;48.748;2.222;2022-11-12T14:00:23;17.40;73.60
29345;DHT22;16339;48.748;2.222;2022-11-12T14:02:53;17.30;73.60
29345;DHT22;16339;48.748;2.222;2022-11-12T14:05:25;17.40;73.60
29345;DHT22;16339;48.748;2.222;2022-11-12T14:08:12;17.30;73.60
29345;DHT22;16339;48.748;2.222;2022-11-12T14:10:48;17.10;74.20
29345;DHT22;16339;48.748;2.222;2022-11-12T14:13:34;17.00;74.80
29345;DHT22;16339;48.748;2.222;2022-11-12T14:16:24;16.90;75.20
29345;DHT22;16339;48.748;2.222;2022-11-12T14:19:13;16.90;75.70
29345;DHT22;16339;48.748;2.222;2022-11-12T14:21:58;16.80;76.00
29345;DHT22;16339;48.748;2.222;2022-11-12T14:24:27;16.80;76.40
29345;DHT22;16339;48.748;2.222;2022-11-12T14:26:59;16.80;76.50
29345;DHT22;16339;48.748;2.222;2022-11-12T14:29:28;16.80;76.80
29345;DHT22;16339;48.748;2.222;2022-11-12T14:32:07;16.70;77.10
29345;DHT22;16339;48.748;2.222;2022-11-12T14:34:36;16.70;77.50
29345;DHT22;16339;48.748;2.222;2022-11-12T14:37:05;16.70;77.60
29345;DHT22;16339;48.748;2.222;2022-11-12T14:39:40;16.60;77.90
29345;DHT22;16339;48.748;2.222;2022-11-12T14:42:13;16.60;78.00
29345;DHT22;16339;48.748;2.222;2022-11-12T14:44:42;16.50;78.20
29345;DHT22;16339;48.748;2.222;2022-11-12T14:47:16;16.40;78.40
29345;DHT22;16339;48.748;2.222;2022-11-12T14:49:47;16.40;78.60
29345;DHT22;16339;48.748;2.222;2022-11-12T14:52:20;16.30;78.80
29345;DHT22;16339;48.748;2.222;2022-11-12T14:54:51;16.20;79.00
29345;DHT22;16339;48.748;2.222;2022-11-12T14:57:23;16.20;79.20
29345;DHT22;16339;48.748;2.222;2022-11-12T14:59:53;16.10;79.60
29345;DHT22;16339;48.748;2.222;2022-11-12T15:02:26;16.10;79.90
29345;DHT22;16339;48.748;2.222;2022-11-12T15:04:59;15.90;80.60
29345;DHT22;16339;48.748;2.222;2022-11-12T15:07:30;15.90;81.00
29345;DHT22;16339;48.748;2.222;2022-11-12T15:10:00;15.80;81.10
29345;DHT22;16339;48.748;2.222;2022-11-12T15:12:51;15.80;81.40
29345;DHT22;16339;48.748;2.222;2022-11-12T15:15:20;15.70;81.80
29345;DHT22;16339;48.748;2.222;2022-11-12T15:17:56;15.60;82.40
29345;DHT22;16339;48.748;2.222;2022-11-12T15:20:26;15.50;82.30
29345;DHT22;16339;48.748;2.222;2022-11-12T15:22:55;15.50;82.30
29345;DHT22;16339;48.748;2.222;2022-11-12T15:25:25;15.40;82.70
29345;DHT22;16339;48.748;2.222;2022-11-12T15:28:11;15.40;82.90
29345;DHT22;16339;48.748;2.222;2022-11-12T15:30:40;15.40;82.90
29345;DHT22;16339;48.748;2.222;2022-11-12T15:33:17;15.40;82.40
29345;DHT22;16339;48.748;2.222;2022-11-12T15:35:55;15.40;82.50
29345;DHT22;16339;48.748;2.222;2022-11-12T15:38:27;15.30;82.90
29345;DHT22;16339;48.748;2.222;2022-11-12T15:40:57;15.20;83.00
29345;DHT22;16339;48.748;2.222;2022-11-12T15:43:32;15.20;83.40
29345;DHT22;16339;48.748;2.222;2022-11-12T15:46:10;15.10;83.40
29345;DHT22;16339;48.748;2.222;2022-11-12T15:48:41;15.10;83.50
29345;DHT22;16339;48.748;2.222;2022-11-12T15:51:16;15.10;83.30
29345;DHT22;16339;48.748;2.222;2022-11-12T15:53:44;15.10;83.20
29345;DHT22;16339;48.748;2.222;2022-11-12T15:56:16;15.10;83.10
29345;DHT22;16339;48.748;2.222;2022-11-12T15:58:49;15.10;83.30
29345;DHT22;16339;48.748;2.222;2022-11-12T16:01:18;15.00;83.60
29345;DHT22;16339;48.748;2.222;2022-11-12T16:03:47;15.00;83.50
29345;DHT22;16339;48.748;2.222;2022-11-12T16:06:16;15.00;83.40
29345;DHT22;16339;48.748;2.222;2022-11-12T16:08:44;15.00;83.30
29345;DHT22;16339;48.748;2.222;2022-11-12T16:11:13;15.00;83.30
29345;DHT22;16339;48.748;2.222;2022-11-12T16:16:53;15.00;83.40
29345;DHT22;16339;48.748;2.222;2022-11-12T16:19:22;14.90;83.40
29345;DHT22;16339;48.748;2.222;2022-11-12T16:21:54;15.00;83.30